Time;durP1;ratioP1;P1;durP2;ratioP2;P2;SDS_P1;SDS_P2;PMS_P1;PMS_P2;Temp;Humidity;BMP_temperature;BMP_pressure;BME280_temperature;BME280_humidity;BME280_pressure;Samples;Min_cycle;Max_cycle;Signal;HPM_P1;HPM_P2
2021/08/08 00:00:27;;;;;;;12.63;2.95;;;;;;;;;;1468900;40;20515;-82
2021/08/08 00:01:29;;;;;;;10.87;3.27;;;;;;;;;;1473808;40;20595;-82
2021/08/08 00:02:36;;;;;;;9.38;2.95;;;;;;;;;;1465945;40;20403;-84
2021/08/08 00:03:38;;;;;;;11.25;3.55;;;;;;;;;;1469543;40;20808;-84
2021/08/08 00:04:39;;;;;;;9.05;3.50;;;;;;;;;;1467151;40;20867;-83
2021/08/08 00:05:41;;;;;;;11.63;3.35;;;;;;;;;;1462049;40;20421;-82
2021/08/08 00:06:42;;;;;;;13.20;3.58;;;;;;;;;;1466051;40;20471;-85
2021/08/08 00:07:44;;;;;;;12.23;4.05;;;;;;;;;;1465380;40;20404;-82
2021/08/08 00:08:46;;;;;;;16.10;4.35;;;;;;;;;;1465522;40;20415;-83
2021/08/08 00:09:47;;;;;;;13.30;4.93;;;;;;;;;;1465987;40;20806;-84
2021/08/08 00:10:49;;;;;;;12.02;4.15;;;;;;;;;;1466003;40;20411;-85
2021/08/08 00:11:50;;;;;;;11.40;4.65;;;;;;;;;;1475725;40;20984;-84
2021/08/08 00:12:52;;;;;;;14.38;4.68;;;;;;;;;;1478864;40;20385;-84
2021/08/08 00:13:54;;;;;;;13.55;4.57;;;;;;;;;;1474596;40;20517;-83
2021/08/08 00:14:55;;;;;;;13.13;4.45;;;;;;;;;;1478306;40;20492;-84
2021/08/08 00:15:57;;;;;;;15.65;4.60;;;;;;;;;;1479451;40;20404;-84
2021/08/08 00:16:59;;;;;;;12.15;4.30;;;;;;;;;;1478988;40;20412;-84
2021/08/08 00:18:03;;;;;;;13.45;4.53;;;;;;;;;;1479247;40;20427;-84
2021/08/08 00:19:04;;;;;;;11.38;4.40;;;;;;;;;;1474912;40;20561;-84
2021/08/08 00:20:07;;;;;;;13.75;3.90;;;;;;;;;;1473205;40;21167;-82
2021/08/08 00:21:09;;;;;;;11.07;4.82;;;;;;;;;;1479862;40;20416;-84
2021/08/08 00:22:10;;;;;;;15.32;4.22;;;;;;;;;;1479796;40;20420;-84
2021/08/08 00:23:12;;;;;;;12.85;4.40;;;;;;;;;;1475628;40;20437;-84
2021/08/08 00:24:14;;;;;;;10.43;3.70;;;;;;;;;;1475398;40;20426;-82
2021/08/08 00:25:15;;;;;;;9.73;4.22;;;;;;;;;;1469571;40;20424;-82
2021/08/08 00:26:17;;;;;;;9.60;3.75;;;;;;;;;;1471835;40;20421;-81
2021/08/08 00:27:19;;;;;;;10.57;3.45;;;;;;;;;;1473487;40;20490;-82
2021/08/08 00:28:20;;;;;;;9.27;3.90;;;;;;;;;;1471286;40;20413;-82
2021/08/08 00:29:22;;;;;;;12.30;4.43;;;;;;;;;;1474666;40;20467;-84
2021/08/08 00:30:23;;;;;;;8.98;5.15;;;;;;;;;;1474105;40;20780;-85
2021/08/08 00:31:26;;;;;;;10.90;3.97;;;;;;;;;;1474139;40;20416;-82
2021/08/08 00:32:28;;;;;;;10.90;4.32;;;;;;;;;;1466963;40;20429;-82
2021/08/08 00:33:29;;;;;;;13.52;5.00;;;;;;;;;;1469775;40;20405;-84
2021/08/08 00:34:31;;;;;;;10.88;4.68;;;;;;;;;;1473809;40;20428;-81
2021/08/08 00:35:33;;;;;;;14.25;5.10;;;;;;;;;;1478272;40;20745;-81
2021/08/08 00:36:35;;;;;;;12.40;4.88;;;;;;;;;;1477572;40;20386;-83
2021/08/08 00:37:37;;;;;;;11.68;4.53;;;;;;;;;;1468319;40;20401;-83
2021/08/08 00:38:39;;;;;;;12.95;3.88;;;;;;;;;;1468916;40;20467;-84
2021/08/08 00:39:42;;;;;;;13.98;4.90;;;;;;;;;;1473168;40;20586;-82
2021/08/08 00:40:43;;;;;;;12.10;3.90;;;;;;;;;;1465694;40;20451;-83
2021/08/08 00:41:45;;;;;;;16.52;4.80;;;;;;;;;;1467418;40;20428;-82
2021/08/08 00:42:47;;;;;;;15.40;4.80;;;;;;;;;;1478036;40;20491;-83
2021/08/08 00:43:48;;;;;;;13.32;5.13;;;;;;;;;;1469446;40;20406;-83
2021/08/08 00:44:50;;;;;;;14.43;4.82;;;;;;;;;;1468966;40;20421;-84
2021/08/08 00:45:51;;;;;;;7.47;3.50;;;;;;;;;;1469428;40;20529;-84
2021/08/08 00:46:54;;;;;;;8.63;4.03;;;;;;;;;;1473793;40;20525;-83
2021/08/08 00:47:56;;;;;;;12.15;4.28;;;;;;;;;;1477812;40;20445;-83
2021/08/08 00:48:58;;;;;;;15.00;5.27;;;;;;;;;;1477872;40;20543;-83
2021/08/08 00:50:01;;;;;;;12.80;4.95;;;;;;;;;;1478488;40;20430;-83
2021/08/08 00:51:03;;;;;;;13.85;5.60;;;;;;;;;;1469606;40;20413;-83
2021/08/08 00:52:04;;;;;;;15.55;5.20;;;;;;;;;;1470114;40;20445;-83
2021/08/08 00:53:07;;;;;;;20.73;6.40;;;;;;;;;;1473860;40;20523;-83
2021/08/08 00:54:08;;;;;;;15.15;5.65;;;;;;;;;;1480570;40;20418;-83
2021/08/08 00:55:11;;;;;;;20.52;6.00;;;;;;;;;;1475843;40;20436;-84
2021/08/08 00:56:15;;;;;;;21.67;6.93;;;;;;;;;;1474950;40;20821;-83
2021/08/08 00:57:17;;;;;;;16.77;5.93;;;;;;;;;;1478155;40;20446;-83
2021/08/08 00:58:20;;;;;;;18.55;5.90;;;;;;;;;;1478423;40;20849;-83
2021/08/08 00:59:21;;;;;;;16.98;5.70;;;;;;;;;;1477991;40;20413;-83
2021/08/08 01:00:24;;;;;;;19.45;6.35;;;;;;;;;;1474066;40;20928;-83
2021/08/08 01:01:28;;;;;;;16.70;5.85;;;;;;;;;;1474622;40;20458;-84
2021/08/08 01:02:35;;;;;;;20.67;5.25;;;;;;;;;;1478869;40;20395;-81
2021/08/08 01:03:40;;;;;;;22.08;6.35;;;;;;;;;;1478007;40;20411;-84
2021/08/08 01:04:50;;;;;;;21.95;6.18;;;;;;;;;;1475197;40;20416;-83
2021/08/08 01:06:01;;;;;;;13.45;5.32;;;;;;;;;;1474369;40;20407;-82
2021/08/08 01:07:09;;;;;;;13.52;5.57;;;;;;;;;;1474317;40;20497;-82
2021/08/08 01:08:18;;;;;;;11.40;5.53;;;;;;;;;;1474427;40;20453;-84
2021/08/08 01:09:23;;;;;;;20.38;6.38;;;;;;;;;;1478195;40;20414;-83
2021/08/08 01:10:24;;;;;;;16.35;5.63;;;;;;;;;;1476128;40;20731;-81
2021/08/08 01:11:27;;;;;;;16.10;5.57;;;;;;;;;;1474765;40;20838;-83
2021/08/08 01:12:29;;;;;;;16.27;5.43;;;;;;;;;;1469288;40;20438;-83
2021/08/08 01:13:32;;;;;;;18.52;5.63;;;;;;;;;;1474686;40;20421;-84
2021/08/08 01:14:36;;;;;;;15.20;5.65;;;;;;;;;;1478328;40;20878;-84
2021/08/08 01:15:39;;;;;;;15.13;5.90;;;;;;;;;;1480472;40;20747;-84
2021/08/08 01:16:42;;;;;;;17.45;5.78;;;;;;;;;;1478618;40;20412;-83
2021/08/08 01:17:45;;;;;;;12.95;5.35;;;;;;;;;;1477414;40;20419;-82
2021/08/08 01:18:48;;;;;;;13.73;4.72;;;;;;;;;;1481295;40;20413;-82
2021/08/08 01:20:11;;;;;;;11.55;4.82;;;;;;;;;;1482464;40;20410;-85
2021/08/08 01:21:13;;;;;;;11.05;4.43;;;;;;;;;;1478623;40;20389;-83
2021/08/08 01:22:17;;;;;;;11.80;5.13;;;;;;;;;;1476808;40;20523;-82
2021/08/08 01:23:21;;;;;;;13.32;5.28;;;;;;;;;;1475240;40;20486;-81
2021/08/08 01:24:23;;;;;;;16.60;5.50;;;;;;;;;;1475248;40;20444;-81
2021/08/08 01:25:25;;;;;;;10.30;4.10;;;;;;;;;;1478964;40;20418;-83
2021/08/08 01:26:30;;;;;;;15.18;4.78;;;;;;;;;;1478462;40;20457;-81
2021/08/08 01:27:32;;;;;;;13.52;4.22;;;;;;;;;;1470950;40;20836;-82
2021/08/08 01:28:36;;;;;;;11.18;4.75;;;;;;;;;;1474523;40;20423;-83
2021/08/08 01:29:38;;;;;;;11.98;3.85;;;;;;;;;;1474200;40;20516;-83
2021/08/08 01:30:40;;;;;;;12.10;4.03;;;;;;;;;;1474536;40;20427;-83
2021/08/08 01:31:50;;;;;;;13.15;4.60;;;;;;;;;;1478581;40;20410;-83
2021/08/08 01:32:51;;;;;;;12.25;4.13;;;;;;;;;;1478708;40;20930;-82
2021/08/08 01:33:53;;;;;;;14.98;4.75;;;;;;;;;;1478043;40;20420;-81
2021/08/08 01:34:55;;;;;;;12.30;4.22;;;;;;;;;;1473000;40;20447;-82
2021/08/08 01:35:57;;;;;;;14.60;4.13;;;;;;;;;;1474161;40;20569;-83
2021/08/08 01:36:58;;;;;;;14.88;4.15;;;;;;;;;;1478213;40;20496;-83
2021/08/08 01:38:00;;;;;;;8.98;4.10;;;;;;;;;;1473845;40;20419;-83
2021/08/08 01:39:06;;;;;;;13.55;3.92;;;;;;;;;;1469121;40;20497;-85
2021/08/08 01:40:34;;;;;;;10.82;3.63;;;;;;;;;;1470142;40;20417;-84
2021/08/08 01:41:42;;;;;;;17.92;4.63;;;;;;;;;;1476036;40;20406;-81
2021/08/08 01:42:47;;;;;;;14.05;4.18;;;;;;;;;;1473724;40;20510;-81
2021/08/08 01:43:50;;;;;;;16.65;4.93;;;;;;;;;;1474103;40;20435;-82
2021/08/08 01:44:54;;;;;;;16.00;5.10;;;;;;;;;;1473863;40;20443;-82
2021/08/08 01:46:03;;;;;;;16.45;5.10;;;;;;;;;;1473844;40;20449;-82
2021/08/08 01:47:05;;;;;;;11.63;4.00;;;;;;;;;;1477231;40;20537;-81
2021/08/08 01:48:10;;;;;;;12.03;4.47;;;;;;;;;;1469694;40;20496;-82
2021/08/08 01:49:12;;;;;;;11.10;3.85;;;;;;;;;;1470057;40;20421;-84
2021/08/08 01:50:16;;;;;;;17.83;5.00;;;;;;;;;;1469625;40;20560;-83
2021/08/08 01:51:18;;;;;;;15.32;4.90;;;;;;;;;;1465919;40;20423;-82
2021/08/08 01:52:20;;;;;;;11.93;4.10;;;;;;;;;;1469576;40;20419;-83
2021/08/08 01:53:22;;;;;;;15.73;4.40;;;;;;;;;;1473627;40;20416;-83
2021/08/08 01:54:24;;;;;;;10.00;3.80;;;;;;;;;;1469477;40;20521;-83
2021/08/08 01:55:25;;;;;;;15.05;4.20;;;;;;;;;;1470047;40;20428;-83
2021/08/08 01:56:27;;;;;;;13.98;4.18;;;;;;;;;;1473660;40;20424;-81
2021/08/08 01:57:29;;;;;;;12.77;4.03;;;;;;;;;;1473785;40;20432;-82
2021/08/08 01:58:31;;;;;;;9.93;3.95;;;;;;;;;;1474098;40;20435;-83
2021/08/08 01:59:32;;;;;;;12.30;4.10;;;;;;;;;;1473112;40;20526;-82
2021/08/08 02:00:34;;;;;;;12.38;4.18;;;;;;;;;;1473842;40;20448;-83
2021/08/08 02:01:36;;;;;;;9.10;3.60;;;;;;;;;;1469957;40;20406;-83
2021/08/08 02:02:51;;;;;;;16.08;4.32;;;;;;;;;;1469625;40;20442;-82
2021/08/08 02:03:53;;;;;;;16.45;4.38;;;;;;;;;;1469638;40;20401;-83
2021/08/08 02:04:55;;;;;;;16.88;4.90;;;;;;;;;;1469638;40;20609;-83
2021/08/08 02:05:56;;;;;;;10.55;3.78;;;;;;;;;;1469603;40;20420;-82
2021/08/08 02:06:58;;;;;;;12.75;3.70;;;;;;;;;;1465554;40;20443;-83
2021/08/08 02:07:59;;;;;;;13.07;3.75;;;;;;;;;;1465959;40;20424;-83
2021/08/08 02:09:01;;;;;;;13.23;4.13;;;;;;;;;;1465309;40;21249;-83
2021/08/08 02:10:03;;;;;;;12.85;3.47;;;;;;;;;;1465583;40;20407;-82
2021/08/08 02:11:04;;;;;;;15.07;4.63;;;;;;;;;;1465446;40;20680;-83
2021/08/08 02:12:07;;;;;;;9.13;3.45;;;;;;;;;;1467756;40;20529;-82
2021/08/08 02:13:08;;;;;;;12.93;3.45;;;;;;;;;;1473277;40;20489;-83
2021/08/08 02:14:11;;;;;;;13.15;2.95;;;;;;;;;;1474452;40;20430;-82
2021/08/08 02:15:13;;;;;;;12.45;4.35;;;;;;;;;;1473434;40;20419;-83
2021/08/08 02:16:14;;;;;;;13.45;3.92;;;;;;;;;;1473982;40;20515;-81
2021/08/08 02:17:17;;;;;;;12.43;3.08;;;;;;;;;;1473484;40;20400;-81
2021/08/08 02:18:18;;;;;;;12.50;3.42;;;;;;;;;;1473939;40;20475;-81
2021/08/08 02:19:20;;;;;;;12.38;3.85;;;;;;;;;;1474214;40;20852;-81
2021/08/08 02:20:21;;;;;;;13.10;3.83;;;;;;;;;;1474165;40;20728;-81
2021/08/08 02:21:23;;;;;;;10.85;3.42;;;;;;;;;;1473603;40;20424;-81
2021/08/08 02:22:25;;;;;;;10.13;3.72;;;;;;;;;;1473810;40;20516;-81
2021/08/08 02:23:26;;;;;;;10.88;3.58;;;;;;;;;;1469273;40;20483;-83
2021/08/08 02:24:31;;;;;;;12.80;3.90;;;;;;;;;;1469195;40;20456;-81
2021/08/08 02:25:32;;;;;;;11.68;3.58;;;;;;;;;;1469746;40;20466;-81
2021/08/08 02:26:34;;;;;;;15.32;3.55;;;;;;;;;;1473920;40;20443;-81
2021/08/08 02:27:36;;;;;;;11.13;3.60;;;;;;;;;;1477835;40;20480;-83
2021/08/08 02:28:37;;;;;;;10.38;3.58;;;;;;;;;;1477960;40;20402;-82
2021/08/08 02:29:39;;;;;;;13.43;3.28;;;;;;;;;;1478342;40;20754;-81
2021/08/08 02:30:41;;;;;;;9.10;3.08;;;;;;;;;;1473809;40;20438;-84
2021/08/08 02:31:44;;;;;;;12.80;3.33;;;;;;;;;;1469826;40;20428;-80
2021/08/08 02:32:46;;;;;;;10.50;3.42;;;;;;;;;;1474476;40;20513;-83
2021/08/08 02:33:48;;;;;;;11.90;3.22;;;;;;;;;;1474440;40;20464;-83
2021/08/08 02:34:49;;;;;;;9.43;3.58;;;;;;;;;;1475158;40;20977;-84
2021/08/08 02:35:51;;;;;;;13.30;3.55;;;;;;;;;;1479056;40;20417;-82
2021/08/08 02:36:52;;;;;;;11.57;3.70;;;;;;;;;;1474122;40;20407;-82
2021/08/08 02:37:54;;;;;;;14.65;3.97;;;;;;;;;;1469819;40;20933;-81
2021/08/08 02:38:56;;;;;;;13.13;4.15;;;;;;;;;;1469903;40;20401;-83
2021/08/08 02:39:57;;;;;;;11.98;3.55;;;;;;;;;;1461360;40;20835;-84
2021/08/08 02:40:59;;;;;;;11.43;3.47;;;;;;;;;;1461916;40;20789;-83
2021/08/08 02:42:00;;;;;;;13.65;3.60;;;;;;;;;;1471830;40;20444;-82
2021/08/08 02:43:02;;;;;;;11.57;3.53;;;;;;;;;;1478359;40;20445;-83
2021/08/08 02:44:04;;;;;;;10.85;3.33;;;;;;;;;;1474226;40;20706;-82
2021/08/08 02:45:06;;;;;;;14.10;3.95;;;;;;;;;;1473905;40;20427;-82
2021/08/08 02:46:08;;;;;;;11.45;3.40;;;;;;;;;;1478588;40;20414;-83
2021/08/08 02:47:10;;;;;;;10.77;3.58;;;;;;;;;;1469948;40;21240;-82
2021/08/08 02:48:11;;;;;;;12.13;3.78;;;;;;;;;;1469793;40;21180;-82
2021/08/08 02:49:13;;;;;;;12.82;3.60;;;;;;;;;;1473910;40;20837;-82
2021/08/08 02:50:14;;;;;;;10.48;2.95;;;;;;;;;;1469320;40;20823;-82
2021/08/08 02:51:16;;;;;;;9.98;3.05;;;;;;;;;;1474926;40;20486;-82
2021/08/08 02:52:18;;;;;;;11.93;3.17;;;;;;;;;;1480279;40;20612;-82
2021/08/08 02:53:20;;;;;;;12.85;2.95;;;;;;;;;;1479216;40;20525;-82
2021/08/08 02:54:21;;;;;;;11.25;3.15;;;;;;;;;;1478991;40;20439;-83
2021/08/08 02:55:23;;;;;;;10.55;3.65;;;;;;;;;;1482334;40;20934;-83
2021/08/08 02:56:24;;;;;;;13.32;2.63;;;;;;;;;;1483621;40;20414;-83
2021/08/08 02:57:26;;;;;;;11.00;2.90;;;;;;;;;;1483716;40;20413;-84
2021/08/08 02:58:27;;;;;;;10.57;3.10;;;;;;;;;;1478177;40;20460;-82
2021/08/08 02:59:29;;;;;;;8.47;2.40;;;;;;;;;;1479484;40;20572;-83
2021/08/08 03:00:31;;;;;;;10.63;2.28;;;;;;;;;;1484338;40;21295;-83
2021/08/08 03:01:32;;;;;;;9.85;3.20;;;;;;;;;;1484491;40;20402;-82
2021/08/08 03:02:34;;;;;;;10.48;3.33;;;;;;;;;;1481417;40;20383;-82
2021/08/08 03:03:36;;;;;;;10.93;2.75;;;;;;;;;;1479442;40;20432;-82
2021/08/08 03:04:37;;;;;;;7.10;2.50;;;;;;;;;;1478930;40;20412;-82
2021/08/08 03:05:39;;;;;;;8.80;2.43;;;;;;;;;;1478623;40;20457;-82
2021/08/08 03:06:47;;;;;;;8.20;3.40;;;;;;;;;;1473454;40;20417;-81
2021/08/08 03:07:49;;;;;;;10.45;3.17;;;;;;;;;;1467824;40;20479;-83
2021/08/08 03:08:52;;;;;;;10.77;2.90;;;;;;;;;;1470959;40;20692;-82
2021/08/08 03:09:53;;;;;;;9.63;2.65;;;;;;;;;;1474628;40;20455;-82
2021/08/08 03:10:55;;;;;;;9.18;2.63;;;;;;;;;;1474249;40;20713;-82
2021/08/08 03:11:57;;;;;;;12.63;3.00;;;;;;;;;;1470211;40;20453;-82
2021/08/08 03:12:59;;;;;;;12.23;2.95;;;;;;;;;;1470175;40;20465;-82
2021/08/08 03:14:01;;;;;;;9.32;3.13;;;;;;;;;;1470019;40;20413;-83
2021/08/08 03:15:03;;;;;;;17.90;3.80;;;;;;;;;;1467271;40;20431;-82
2021/08/08 03:16:06;;;;;;;10.25;3.65;;;;;;;;;;1473920;40;20419;-82
2021/08/08 03:17:08;;;;;;;11.05;3.10;;;;;;;;;;1473721;40;20975;-81
2021/08/08 03:18:09;;;;;;;11.73;3.00;;;;;;;;;;1469689;40;20449;-81
2021/08/08 03:19:12;;;;;;;12.40;3.50;;;;;;;;;;1465455;40;20435;-83
2021/08/08 03:20:13;;;;;;;11.32;3.45;;;;;;;;;;1469792;40;20426;-81
2021/08/08 03:21:15;;;;;;;11.85;3.50;;;;;;;;;;1473667;40;20412;-82
2021/08/08 03:22:17;;;;;;;7.70;2.83;;;;;;;;;;1477809;40;20442;-82
2021/08/08 03:23:18;;;;;;;11.80;3.15;;;;;;;;;;1469635;40;20453;-82
2021/08/08 03:24:20;;;;;;;14.13;3.03;;;;;;;;;;1469333;40;20469;-83
2021/08/08 03:25:21;;;;;;;19.33;4.10;;;;;;;;;;1474244;40;20467;-81
2021/08/08 03:26:23;;;;;;;10.88;3.10;;;;;;;;;;1469670;40;20456;-82
2021/08/08 03:27:25;;;;;;;8.23;2.90;;;;;;;;;;1469334;40;20547;-83
2021/08/08 03:28:26;;;;;;;9.95;3.00;;;;;;;;;;1474128;40;20478;-84
2021/08/08 03:29:28;;;;;;;15.30;3.38;;;;;;;;;;1474277;40;20542;-82
2021/08/08 03:30:29;;;;;;;8.60;2.30;;;;;;;;;;1469552;40;20457;-82
2021/08/08 03:31:31;;;;;;;12.40;2.97;;;;;;;;;;1473797;40;20399;-82
2021/08/08 03:32:36;;;;;;;10.07;2.90;;;;;;;;;;1469368;40;20417;-82
2021/08/08 03:33:38;;;;;;;14.38;3.17;;;;;;;;;;1470024;40;20418;-82
2021/08/08 03:34:39;;;;;;;10.45;2.72;;;;;;;;;;1473884;40;20531;-83
2021/08/08 03:35:41;;;;;;;12.40;3.53;;;;;;;;;;1474132;40;20412;-82
2021/08/08 03:36:43;;;;;;;12.85;2.80;;;;;;;;;;1469506;40;20469;-82
2021/08/08 03:37:44;;;;;;;7.82;2.38;;;;;;;;;;1465587;40;20422;-82
2021/08/08 03:38:48;;;;;;;11.40;2.67;;;;;;;;;;1469235;40;20418;-82
2021/08/08 03:39:50;;;;;;;10.02;2.72;;;;;;;;;;1473471;40;20415;-82
2021/08/08 03:40:51;;;;;;;9.35;2.20;;;;;;;;;;1473833;40;20468;-82
2021/08/08 03:41:54;;;;;;;8.98;2.58;;;;;;;;;;1471518;40;20408;-83
2021/08/08 03:42:55;;;;;;;9.37;2.67;;;;;;;;;;1469644;40;21134;-84
2021/08/08 03:43:57;;;;;;;12.05;3.28;;;;;;;;;;1473970;40;20456;-82
2021/08/08 03:44:58;;;;;;;12.85;2.70;;;;;;;;;;1478296;40;20449;-82
2021/08/08 03:46:00;;;;;;;14.95;3.30;;;;;;;;;;1480306;40;20421;-82
2021/08/08 03:47:02;;;;;;;17.67;3.80;;;;;;;;;;1480698;40;20786;-81
2021/08/08 03:48:04;;;;;;;10.50;2.33;;;;;;;;;;1481125;40;20440;-79
2021/08/08 03:49:05;;;;;;;9.68;2.70;;;;;;;;;;1476941;40;20504;-81
2021/08/08 03:50:08;;;;;;;9.30;2.63;;;;;;;;;;1477157;40;20479;-81
2021/08/08 03:51:10;;;;;;;11.13;3.40;;;;;;;;;;1480335;40;20434;-80
2021/08/08 03:52:11;;;;;;;11.50;3.60;;;;;;;;;;1476484;40;20873;-82
2021/08/08 03:53:13;;;;;;;12.13;2.65;;;;;;;;;;1470246;40;20469;-82
2021/08/08 03:54:14;;;;;;;9.35;2.25;;;;;;;;;;1470354;40;20939;-81
2021/08/08 03:55:16;;;;;;;9.82;2.65;;;;;;;;;;1465546;40;20435;-81
2021/08/08 03:56:18;;;;;;;12.38;2.75;;;;;;;;;;1465863;40;20459;-81
2021/08/08 03:57:19;;;;;;;13.30;3.17;;;;;;;;;;1469703;40;20453;-81
2021/08/08 03:58:22;;;;;;;13.38;3.83;;;;;;;;;;1474214;40;20436;-82
2021/08/08 03:59:23;;;;;;;14.77;3.28;;;;;;;;;;1474499;40;20511;-81
2021/08/08 04:00:25;;;;;;;12.88;3.00;;;;;;;;;;1472487;40;20432;-82
2021/08/08 04:01:26;;;;;;;15.80;3.80;;;;;;;;;;1472724;40;20727;-82
2021/08/08 04:02:28;;;;;;;16.37;3.53;;;;;;;;;;1472478;40;20453;-81
2021/08/08 04:03:31;;;;;;;16.48;3.33;;;;;;;;;;1470879;40;20578;-83
2021/08/08 04:04:32;;;;;;;11.77;2.95;;;;;;;;;;1474058;40;21236;-82
2021/08/08 04:05:35;;;;;;;12.57;2.97;;;;;;;;;;1466685;40;20881;-82
2021/08/08 04:06:36;;;;;;;13.15;3.05;;;;;;;;;;1468503;40;20462;-82
2021/08/08 04:07:38;;;;;;;18.20;2.97;;;;;;;;;;1472991;40;20819;-82
2021/08/08 04:08:40;;;;;;;11.63;3.60;;;;;;;;;;1477917;40;20400;-83
2021/08/08 04:09:41;;;;;;;13.02;2.25;;;;;;;;;;1471198;40;20748;-82
2021/08/08 04:10:43;;;;;;;12.65;2.53;;;;;;;;;;1467419;40;20411;-84
2021/08/08 04:11:44;;;;;;;16.15;3.65;;;;;;;;;;1472650;40;20555;-80
2021/08/08 04:12:46;;;;;;;9.97;2.47;;;;;;;;;;1476018;40;20572;-83
2021/08/08 04:13:48;;;;;;;11.68;2.72;;;;;;;;;;1471061;40;20417;-82
2021/08/08 04:14:49;;;;;;;10.25;3.20;;;;;;;;;;1469806;40;20732;-84
2021/08/08 04:15:51;;;;;;;10.18;2.88;;;;;;;;;;1469825;40;20457;-82
2021/08/08 04:16:53;;;;;;;12.63;2.45;;;;;;;;;;1473207;40;20411;-80
2021/08/08 04:17:54;;;;;;;12.88;2.38;;;;;;;;;;1478392;40;20533;-82
2021/08/08 04:18:56;;;;;;;19.90;3.30;;;;;;;;;;1473567;40;20560;-84
2021/08/08 04:19:58;;;;;;;14.88;3.03;;;;;;;;;;1469537;40;20414;-82
2021/08/08 04:20:59;;;;;;;14.15;2.28;;;;;;;;;;1473640;40;20528;-82
2021/08/08 04:22:02;;;;;;;13.18;2.53;;;;;;;;;;1478282;40;20541;-81
2021/08/08 04:23:04;;;;;;;15.73;3.08;;;;;;;;;;1473625;40;20474;-80
2021/08/08 04:24:05;;;;;;;11.13;2.35;;;;;;;;;;1469675;40;20831;-81
2021/08/08 04:25:07;;;;;;;11.50;2.17;;;;;;;;;;1473148;40;20454;-81
2021/08/08 04:26:09;;;;;;;17.42;3.83;;;;;;;;;;1469235;40;20486;-82
2021/08/08 04:27:11;;;;;;;11.82;2.85;;;;;;;;;;1470270;40;20536;-82
2021/08/08 04:28:12;;;;;;;12.27;2.72;;;;;;;;;;1469476;40;21115;-82
2021/08/08 04:29:14;;;;;;;9.48;2.70;;;;;;;;;;1468992;40;20499;-82
2021/08/08 04:30:16;;;;;;;12.05;2.63;;;;;;;;;;1470231;40;20449;-84
2021/08/08 04:31:18;;;;;;;14.40;2.88;;;;;;;;;;1470189;40;20486;-81
2021/08/08 04:32:20;;;;;;;10.82;2.38;;;;;;;;;;1466592;40;20427;-81
2021/08/08 04:33:22;;;;;;;15.73;3.40;;;;;;;;;;1470334;40;20437;-82
2021/08/08 04:34:24;;;;;;;10.80;2.30;;;;;;;;;;1469953;40;20779;-83
2021/08/08 04:35:28;;;;;;;14.15;3.85;;;;;;;;;;1466269;40;20494;-83
2021/08/08 04:36:29;;;;;;;10.95;2.38;;;;;;;;;;1469795;40;20511;-82
2021/08/08 04:37:32;;;;;;;15.20;3.28;;;;;;;;;;1470154;40;20552;-83
2021/08/08 04:38:33;;;;;;;11.73;3.22;;;;;;;;;;1465653;40;20903;-83
2021/08/08 04:39:35;;;;;;;11.80;2.70;;;;;;;;;;1457912;40;20423;-81
2021/08/08 04:40:37;;;;;;;14.27;2.33;;;;;;;;;;1461593;40;20489;-83
2021/08/08 04:41:39;;;;;;;14.95;2.53;;;;;;;;;;1467056;40;20414;-84
2021/08/08 04:42:40;;;;;;;11.05;2.33;;;;;;;;;;1469878;40;20449;-83
2021/08/08 04:43:42;;;;;;;14.98;2.97;;;;;;;;;;1465800;40;20442;-83
2021/08/08 04:44:43;;;;;;;15.30;3.10;;;;;;;;;;1462008;40;20513;-81
2021/08/08 04:45:45;;;;;;;14.55;2.75;;;;;;;;;;1465841;40;20796;-83
2021/08/08 04:46:47;;;;;;;14.30;2.22;;;;;;;;;;1469902;40;20417;-82
2021/08/08 04:47:50;;;;;;;15.27;2.40;;;;;;;;;;1465884;40;20451;-83
2021/08/08 04:48:52;;;;;;;13.30;3.42;;;;;;;;;;1462073;40;20416;-83
2021/08/08 04:49:53;;;;;;;14.23;2.97;;;;;;;;;;1465788;40;20439;-82
2021/08/08 04:50:55;;;;;;;13.65;3.03;;;;;;;;;;1469994;40;20513;-82
2021/08/08 04:51:58;;;;;;;13.07;2.72;;;;;;;;;;1470167;40;20555;-82
2021/08/08 04:53:00;;;;;;;10.77;2.22;;;;;;;;;;1471963;40;20448;-83
2021/08/08 04:54:02;;;;;;;16.55;2.70;;;;;;;;;;1473939;40;20415;-81
2021/08/08 04:55:05;;;;;;;15.27;3.55;;;;;;;;;;1472611;40;20867;-82
2021/08/08 04:56:07;;;;;;;19.05;2.95;;;;;;;;;;1470179;40;20394;-81
2021/08/08 04:57:08;;;;;;;16.02;2.60;;;;;;;;;;1465593;40;20873;-81
2021/08/08 04:58:11;;;;;;;13.02;2.85;;;;;;;;;;1470184;40;20553;-81
2021/08/08 04:59:12;;;;;;;14.15;3.38;;;;;;;;;;1473975;40;20507;-82
2021/08/08 05:00:16;;;;;;;10.95;2.53;;;;;;;;;;1473829;40;20432;-81
2021/08/08 05:01:18;;;;;;;16.80;3.47;;;;;;;;;;1470286;40;20428;-82
2021/08/08 05:02:20;;;;;;;15.50;2.97;;;;;;;;;;1470318;40;20802;-83
2021/08/08 05:03:22;;;;;;;21.85;3.00;;;;;;;;;;1470582;40;20433;-81
2021/08/08 05:04:24;;;;;;;20.73;3.75;;;;;;;;;;1470186;40;20497;-82
2021/08/08 05:05:26;;;;;;;14.77;2.72;;;;;;;;;;1466003;40;20848;-81
2021/08/08 05:06:27;;;;;;;16.92;2.97;;;;;;;;;;1470372;40;20413;-82
2021/08/08 05:07:29;;;;;;;18.08;2.50;;;;;;;;;;1461061;40;20497;-82
2021/08/08 05:08:30;;;;;;;15.23;2.97;;;;;;;;;;1461792;40;20457;-82
2021/08/08 05:09:32;;;;;;;15.93;2.92;;;;;;;;;;1469841;40;20421;-83
2021/08/08 05:10:33;;;;;;;18.40;4.15;;;;;;;;;;1469093;40;20473;-82
2021/08/08 05:11:35;;;;;;;15.67;3.57;;;;;;;;;;1469930;40;20850;-81
2021/08/08 05:12:37;;;;;;;20.73;4.22;;;;;;;;;;1469690;40;20414;-81
2021/08/08 05:13:38;;;;;;;19.88;3.53;;;;;;;;;;1469905;40;20559;-82
2021/08/08 05:14:40;;;;;;;19.75;3.70;;;;;;;;;;1465612;40;20495;-81
2021/08/08 05:15:41;;;;;;;19.88;3.78;;;;;;;;;;1466006;40;20411;-81
2021/08/08 05:16:43;;;;;;;18.33;3.35;;;;;;;;;;1469392;40;20433;-82
2021/08/08 05:17:44;;;;;;;17.40;3.60;;;;;;;;;;1466128;40;20434;-81
2021/08/08 05:18:46;;;;;;;19.60;4.68;;;;;;;;;;1461843;40;20420;-81
2021/08/08 05:19:48;;;;;;;19.25;4.32;;;;;;;;;;1465506;40;20428;-83
2021/08/08 05:20:50;;;;;;;17.00;3.58;;;;;;;;;;1469866;40;20433;-84
2021/08/08 05:21:51;;;;;;;21.88;3.72;;;;;;;;;;1474457;40;21041;-82
2021/08/08 05:22:53;;;;;;;25.52;3.92;;;;;;;;;;1470515;40;20432;-82
2021/08/08 05:23:55;;;;;;;27.80;5.05;;;;;;;;;;1470667;40;20668;-82
2021/08/08 05:24:57;;;;;;;28.10;4.93;;;;;;;;;;1476836;40;20445;-82
2021/08/08 05:25:59;;;;;;;25.50;3.78;;;;;;;;;;1477911;40;20462;-82
2021/08/08 05:27:01;;;;;;;24.95;4.65;;;;;;;;;;1475011;40;20416;-82
2021/08/08 05:28:03;;;;;;;26.30;4.60;;;;;;;;;;1478369;40;20746;-82
2021/08/08 05:29:04;;;;;;;23.60;4.82;;;;;;;;;;1474511;40;20616;-83
2021/08/08 05:30:08;;;;;;;17.25;4.32;;;;;;;;;;1466582;40;20598;-81
2021/08/08 05:31:10;;;;;;;20.92;5.40;;;;;;;;;;1466234;40;20554;-83
2021/08/08 05:32:12;;;;;;;27.42;5.28;;;;;;;;;;1467588;40;20684;-83
2021/08/08 05:33:13;;;;;;;27.90;5.32;;;;;;;;;;1466301;40;20501;-84
2021/08/08 05:34:15;;;;;;;23.88;4.80;;;;;;;;;;1467435;40;20408;-81
2021/08/08 05:35:17;;;;;;;19.08;3.75;;;;;;;;;;1473494;40;20418;-83
2021/08/08 05:36:18;;;;;;;19.20;4.70;;;;;;;;;;1479651;40;20412;-83
2021/08/08 05:37:21;;;;;;;19.13;4.68;;;;;;;;;;1471174;40;20443;-83
2021/08/08 05:38:23;;;;;;;20.92;4.80;;;;;;;;;;1470669;40;20410;-81
2021/08/08 05:39:24;;;;;;;24.33;4.00;;;;;;;;;;1477588;40;20428;-82
2021/08/08 05:40:26;;;;;;;22.35;5.82;;;;;;;;;;1474239;40;20848;-82
2021/08/08 05:41:27;;;;;;;24.15;5.20;;;;;;;;;;1476158;40;20417;-82
2021/08/08 05:42:29;;;;;;;26.08;5.97;;;;;;;;;;1480649;40;20460;-81
2021/08/08 05:43:31;;;;;;;28.67;5.80;;;;;;;;;;1480701;40;20412;-82
2021/08/08 05:44:37;;;;;;;27.35;6.25;;;;;;;;;;1475655;40;20433;-82
2021/08/08 05:45:39;;;;;;;35.92;6.13;;;;;;;;;;1474421;40;20506;-83
2021/08/08 05:46:41;;;;;;;32.13;6.18;;;;;;;;;;1475197;40;20402;-82
2021/08/08 05:47:42;;;;;;;33.05;5.72;;;;;;;;;;1473679;40;20428;-82
2021/08/08 05:48:44;;;;;;;34.20;5.68;;;;;;;;;;1471356;40;20410;-82
2021/08/08 05:49:46;;;;;;;27.60;6.22;;;;;;;;;;1475795;40;20408;-83
2021/08/08 05:50:47;;;;;;;38.13;6.97;;;;;;;;;;1472276;40;20525;-80
2021/08/08 05:51:49;;;;;;;32.83;6.55;;;;;;;;;;1471678;40;20549;-83
2021/08/08 05:52:52;;;;;;;34.17;6.03;;;;;;;;;;1471489;40;20398;-81
2021/08/08 05:53:54;;;;;;;32.77;5.90;;;;;;;;;;1470827;40;20523;-82
2021/08/08 05:54:55;;;;;;;29.98;6.90;;;;;;;;;;1470136;40;20427;-83
2021/08/08 05:55:57;;;;;;;34.17;6.72;;;;;;;;;;1465997;40;20814;-82
2021/08/08 05:56:59;;;;;;;27.48;6.25;;;;;;;;;;1471458;40;20474;-82
2021/08/08 05:58:00;;;;;;;27.45;6.15;;;;;;;;;;1474430;40;20427;-82
2021/08/08 05:59:03;;;;;;;29.23;5.43;;;;;;;;;;1474079;40;20420;-82
2021/08/08 06:00:06;;;;;;;27.75;5.72;;;;;;;;;;1469355;40;20417;-82
2021/08/08 06:01:07;;;;;;;35.88;7.05;;;;;;;;;;1469829;40;20405;-82
2021/08/08 06:02:09;;;;;;;35.83;8.52;;;;;;;;;;1474649;40;20673;-84
2021/08/08 06:03:11;;;;;;;36.92;7.32;;;;;;;;;;1474351;40;20426;-82
2021/08/08 06:04:13;;;;;;;33.22;6.50;;;;;;;;;;1474062;40;20420;-84
2021/08/08 06:05:14;;;;;;;35.60;6.72;;;;;;;;;;1473611;40;20475;-81
2021/08/08 06:06:16;;;;;;;31.15;6.20;;;;;;;;;;1474559;40;21073;-82
2021/08/08 06:07:18;;;;;;;30.48;6.90;;;;;;;;;;1473956;40;20412;-81
2021/08/08 06:08:20;;;;;;;36.95;6.60;;;;;;;;;;1470188;40;20409;-83